sensor_id;sensor_type;location;lat;lon;timestamp;temperature;humidity
2907;DHT22;1463;51.070;16.998;2023-07-24T00:00:56;23.50;74.00
2907;DHT22;1463;51.070;16.998;2023-07-24T00:03:23;23.40;74.30
2907;DHT22;1463;51.070;16.998;2023-07-24T00:05:52;23.40;74.70
2907;DHT22;1463;51.070;16.998;2023-07-24T00:08:20;23.40;73.90
2907;DHT22;1463;51.070;16.998;2023-07-24T00:10:47;23.40;74.70
2907;DHT22;1463;51.070;16.998;2023-07-24T00:13:14;23.30;73.90
2907;DHT22;1463;51.070;16.998;2023-07-24T00:15:43;23.30;74.50
2907;DHT22;1463;51.070;16.998;2023-07-24T00:18:10;23.30;75.10
2907;DHT22;1463;51.070;16.998;2023-07-24T00:20:38;23.20;75.20
2907;DHT22;1463;51.070;16.998;2023-07-24T00:23:07;23.20;75.00
2907;DHT22;1463;51.070;16.998;2023-07-24T00:25:34;23.20;75.50
2907;DHT22;1463;51.070;16.998;2023-07-24T00:28:02;23.20;75.30
2907;DHT22;1463;51.070;16.998;2023-07-24T00:30:29;23.10;76.00
2907;DHT22;1463;51.070;16.998;2023-07-24T00:32:57;23.10;76.00
2907;DHT22;1463;51.070;16.998;2023-07-24T00:35:25;23.10;75.00
2907;DHT22;1463;51.070;16.998;2023-07-24T00:37:52;23.00;75.00
2907;DHT22;1463;51.070;16.998;2023-07-24T00:40:21;23.00;75.00
2907;DHT22;1463;51.070;16.998;2023-07-24T00:42:49;23.00;75.30
2907;DHT22;1463;51.070;16.998;2023-07-24T00:45:16;23.00;75.90
2907;DHT22;1463;51.070;16.998;2023-07-24T00:47:44;23.00;75.70
2907;DHT22;1463;51.070;16.998;2023-07-24T00:50:12;23.00;76.50
2907;DHT22;1463;51.070;16.998;2023-07-24T00:52:40;22.90;76.20
2907;DHT22;1463;51.070;16.998;2023-07-24T00:55:09;22.90;76.30
2907;DHT22;1463;51.070;16.998;2023-07-24T00:57:40;22.90;76.20
2907;DHT22;1463;51.070;16.998;2023-07-24T01:00:08;22.90;76.20
2907;DHT22;1463;51.070;16.998;2023-07-24T01:02:37;22.90;76.50
2907;DHT22;1463;51.070;16.998;2023-07-24T01:05:08;22.80;76.90
2907;DHT22;1463;51.070;16.998;2023-07-24T01:07:36;22.70;76.80
2907;DHT22;1463;51.070;16.998;2023-07-24T01:10:04;22.70;77.40
2907;DHT22;1463;51.070;16.998;2023-07-24T01:12:36;22.60;77.00
2907;DHT22;1463;51.070;16.998;2023-07-24T01:15:10;22.50;77.40
2907;DHT22;1463;51.070;16.998;2023-07-24T01:17:44;22.60;77.60
2907;DHT22;1463;51.070;16.998;2023-07-24T01:20:13;22.50;77.70
2907;DHT22;1463;51.070;16.998;2023-07-24T01:22:57;22.40;78.00
2907;DHT22;1463;51.070;16.998;2023-07-24T01:25:31;22.50;78.60
2907;DHT22;1463;51.070;16.998;2023-07-24T01:28:07;22.50;79.00
2907;DHT22;1463;51.070;16.998;2023-07-24T01:30:34;22.50;79.60
2907;DHT22;1463;51.070;16.998;2023-07-24T01:33:02;22.50;79.70
2907;DHT22;1463;51.070;16.998;2023-07-24T01:35:31;22.50;80.20
2907;DHT22;1463;51.070;16.998;2023-07-24T01:38:00;22.40;80.40
2907;DHT22;1463;51.070;16.998;2023-07-24T01:40:28;22.40;80.60
2907;DHT22;1463;51.070;16.998;2023-07-24T01:42:56;22.30;80.80
2907;DHT22;1463;51.070;16.998;2023-07-24T01:45:26;22.30;81.30
2907;DHT22;1463;51.070;16.998;2023-07-24T01:47:54;22.30;81.50
2907;DHT22;1463;51.070;16.998;2023-07-24T01:50:21;22.30;81.60
2907;DHT22;1463;51.070;16.998;2023-07-24T01:52:49;22.30;82.20
2907;DHT22;1463;51.070;16.998;2023-07-24T01:55:16;22.30;82.60
2907;DHT22;1463;51.070;16.998;2023-07-24T01:57:44;22.30;82.70
2907;DHT22;1463;51.070;16.998;2023-07-24T02:00:12;22.20;83.00
2907;DHT22;1463;51.070;16.998;2023-07-24T02:02:41;22.10;83.60
2907;DHT22;1463;51.070;16.998;2023-07-24T02:05:08;22.20;83.70
2907;DHT22;1463;51.070;16.998;2023-07-24T02:07:36;22.20;83.60
2907;DHT22;1463;51.070;16.998;2023-07-24T02:10:04;22.20;83.80
2907;DHT22;1463;51.070;16.998;2023-07-24T02:12:32;22.20;84.70
2907;DHT22;1463;51.070;16.998;2023-07-24T02:14:59;22.20;84.50
2907;DHT22;1463;51.070;16.998;2023-07-24T02:17:27;22.10;84.40
2907;DHT22;1463;51.070;16.998;2023-07-24T02:19:55;22.10;84.50
2907;DHT22;1463;51.070;16.998;2023-07-24T02:22:23;22.10;84.70
2907;DHT22;1463;51.070;16.998;2023-07-24T02:24:50;22.10;84.90
2907;DHT22;1463;51.070;16.998;2023-07-24T02:27:25;22.10;85.30
2907;DHT22;1463;51.070;16.998;2023-07-24T02:29:53;22.00;85.90
2907;DHT22;1463;51.070;16.998;2023-07-24T02:32:21;22.00;86.20
2907;DHT22;1463;51.070;16.998;2023-07-24T02:34:49;22.00;86.80
2907;DHT22;1463;51.070;16.998;2023-07-24T02:37:18;22.00;87.20
2907;DHT22;1463;51.070;16.998;2023-07-24T02:39:46;22.00;87.30
2907;DHT22;1463;51.070;16.998;2023-07-24T02:42:13;22.00;87.90
2907;DHT22;1463;51.070;16.998;2023-07-24T02:44:41;22.00;88.00
2907;DHT22;1463;51.070;16.998;2023-07-24T02:47:08;21.90;88.40
2907;DHT22;1463;51.070;16.998;2023-07-24T02:49:36;22.00;88.60
2907;DHT22;1463;51.070;16.998;2023-07-24T02:52:04;21.90;89.10
2907;DHT22;1463;51.070;16.998;2023-07-24T02:54:33;22.00;89.40
2907;DHT22;1463;51.070;16.998;2023-07-24T02:57:00;21.90;89.30
2907;DHT22;1463;51.070;16.998;2023-07-24T02:59:29;21.90;89.60
2907;DHT22;1463;51.070;16.998;2023-07-24T03:01:57;21.90;90.00
2907;DHT22;1463;51.070;16.998;2023-07-24T03:04:25;21.90;90.20
2907;DHT22;1463;51.070;16.998;2023-07-24T03:06:53;21.90;90.30
2907;DHT22;1463;51.070;16.998;2023-07-24T03:09:20;21.80;90.60
2907;DHT22;1463;51.070;16.998;2023-07-24T03:11:49;21.80;90.80
2907;DHT22;1463;51.070;16.998;2023-07-24T03:14:16;21.80;91.10
2907;DHT22;1463;51.070;16.998;2023-07-24T03:16:44;21.80;91.30
2907;DHT22;1463;51.070;16.998;2023-07-24T03:19:11;21.80;91.60
2907;DHT22;1463;51.070;16.998;2023-07-24T03:21:38;21.80;91.80
2907;DHT22;1463;51.070;16.998;2023-07-24T03:24:06;21.70;91.70
2907;DHT22;1463;51.070;16.998;2023-07-24T03:26:33;21.70;92.00
2907;DHT22;1463;51.070;16.998;2023-07-24T03:29:03;21.70;92.20
2907;DHT22;1463;51.070;16.998;2023-07-24T03:31:30;21.70;92.20
2907;DHT22;1463;51.070;16.998;2023-07-24T03:33:58;21.70;92.40
2907;DHT22;1463;51.070;16.998;2023-07-24T03:36:25;21.70;92.40
2907;DHT22;1463;51.070;16.998;2023-07-24T03:38:53;21.60;92.60
2907;DHT22;1463;51.070;16.998;2023-07-24T03:41:20;21.60;92.60
2907;DHT22;1463;51.070;16.998;2023-07-24T03:43:47;21.60;92.80
2907;DHT22;1463;51.070;16.998;2023-07-24T03:46:16;21.60;92.80
2907;DHT22;1463;51.070;16.998;2023-07-24T03:48:43;21.50;93.00
2907;DHT22;1463;51.070;16.998;2023-07-24T03:51:11;21.50;93.20
2907;DHT22;1463;51.070;16.998;2023-07-24T03:53:38;21.50;93.40
2907;DHT22;1463;51.070;16.998;2023-07-24T03:56:06;21.50;93.70
2907;DHT22;1463;51.070;16.998;2023-07-24T03:58:33;21.50;93.80
2907;DHT22;1463;51.070;16.998;2023-07-24T04:01:00;21.60;94.50
2907;DHT22;1463;51.070;16.998;2023-07-24T04:03:29;21.60;94.60
2907;DHT22;1463;51.070;16.998;2023-07-24T04:05:57;21.60;94.70
2907;DHT22;1463;51.070;16.998;2023-07-24T04:08:25;21.70;94.70
2907;DHT22;1463;51.070;16.998;2023-07-24T04:10:52;21.60;94.80
2907;DHT22;1463;51.070;16.998;2023-07-24T04:13:22;21.60;94.80
2907;DHT22;1463;51.070;16.998;2023-07-24T04:15:49;21.50;94.60
2907;DHT22;1463;51.070;16.998;2023-07-24T04:18:17;21.50;95.00
2907;DHT22;1463;51.070;16.998;2023-07-24T04:20:46;21.50;95.20
2907;DHT22;1463;51.070;16.998;2023-07-24T04:23:13;21.40;95.30
2907;DHT22;1463;51.070;16.998;2023-07-24T04:25:41;21.50;95.50
2907;DHT22;1463;51.070;16.998;2023-07-24T04:28:08;21.50;95.30
2907;DHT22;1463;51.070;16.998;2023-07-24T04:30:35;21.50;95.50
2907;DHT22;1463;51.070;16.998;2023-07-24T04:33:03;21.60;95.70
2907;DHT22;1463;51.070;16.998;2023-07-24T04:35:31;21.50;95.80
2907;DHT22;1463;51.070;16.998;2023-07-24T04:38:01;21.60;96.50
2907;DHT22;1463;51.070;16.998;2023-07-24T04:40:28;21.60;96.50
2907;DHT22;1463;51.070;16.998;2023-07-24T04:42:56;21.60;96.80
2907;DHT22;1463;51.070;16.998;2023-07-24T04:45:24;21.60;96.90
2907;DHT22;1463;51.070;16.998;2023-07-24T04:47:51;21.60;97.20
2907;DHT22;1463;51.070;16.998;2023-07-24T04:50:19;21.60;97.30
2907;DHT22;1463;51.070;16.998;2023-07-24T04:52:46;21.60;97.40
2907;DHT22;1463;51.070;16.998;2023-07-24T04:55:15;21.60;97.70
2907;DHT22;1463;51.070;16.998;2023-07-24T04:57:43;21.60;97.90
2907;DHT22;1463;51.070;16.998;2023-07-24T05:00:11;21.60;97.90
2907;DHT22;1463;51.070;16.998;2023-07-24T05:02:39;21.60;98.10
2907;DHT22;1463;51.070;16.998;2023-07-24T05:05:07;21.60;98.00
2907;DHT22;1463;51.070;16.998;2023-07-24T05:07:35;21.60;98.20
2907;DHT22;1463;51.070;16.998;2023-07-24T05:10:03;21.60;98.50
2907;DHT22;1463;51.070;16.998;2023-07-24T05:12:32;21.60;98.80
2907;DHT22;1463;51.070;16.998;2023-07-24T05:15:00;21.60;98.80
2907;DHT22;1463;51.070;16.998;2023-07-24T05:17:28;21.70;98.80
2907;DHT22;1463;51.070;16.998;2023-07-24T05:19:55;21.70;98.80
2907;DHT22;1463;51.070;16.998;2023-07-24T05:22:23;21.80;98.60
2907;DHT22;1463;51.070;16.998;2023-07-24T05:24:51;21.70;98.60
2907;DHT22;1463;51.070;16.998;2023-07-24T05:27:18;21.80;98.50
2907;DHT22;1463;51.070;16.998;2023-07-24T05:29:47;21.80;97.50
2907;DHT22;1463;51.070;16.998;2023-07-24T05:32:14;21.90;97.40
2907;DHT22;1463;51.070;16.998;2023-07-24T05:34:42;21.90;98.00
2907;DHT22;1463;51.070;16.998;2023-07-24T05:37:09;22.00;97.10
2907;DHT22;1463;51.070;16.998;2023-07-24T05:39:37;22.00;97.00
2907;DHT22;1463;51.070;16.998;2023-07-24T05:42:05;22.10;96.60
2907;DHT22;1463;51.070;16.998;2023-07-24T05:44:32;22.10;96.80
2907;DHT22;1463;51.070;16.998;2023-07-24T05:47:03;22.20;96.70
2907;DHT22;1463;51.070;16.998;2023-07-24T05:49:31;22.20;96.80
2907;DHT22;1463;51.070;16.998;2023-07-24T05:51:58;22.30;96.50
2907;DHT22;1463;51.070;16.998;2023-07-24T05:54:26;22.30;96.30
2907;DHT22;1463;51.070;16.998;2023-07-24T05:56:53;22.30;95.60
2907;DHT22;1463;51.070;16.998;2023-07-24T05:59:20;22.40;95.70
2907;DHT22;1463;51.070;16.998;2023-07-24T06:01:48;22.40;96.70
2907;DHT22;1463;51.070;16.998;2023-07-24T06:04:17;22.40;96.30
2907;DHT22;1463;51.070;16.998;2023-07-24T06:06:44;22.40;95.50
2907;DHT22;1463;51.070;16.998;2023-07-24T06:09:12;22.40;95.20
2907;DHT22;1463;51.070;16.998;2023-07-24T06:11:40;22.50;94.80
2907;DHT22;1463;51.070;16.998;2023-07-24T06:14:07;22.50;94.40
2907;DHT22;1463;51.070;16.998;2023-07-24T06:16:34;22.50;94.40
2907;DHT22;1463;51.070;16.998;2023-07-24T06:19:02;22.50;93.90
2907;DHT22;1463;51.070;16.998;2023-07-24T06:21:31;22.50;93.60
2907;DHT22;1463;51.070;16.998;2023-07-24T06:23:58;22.60;94.00
2907;DHT22;1463;51.070;16.998;2023-07-24T06:26:26;22.60;93.90
2907;DHT22;1463;51.070;16.998;2023-07-24T06:28:53;22.60;93.90
2907;DHT22;1463;51.070;16.998;2023-07-24T06:31:21;22.60;93.70
2907;DHT22;1463;51.070;16.998;2023-07-24T06:33:48;22.70;94.00
2907;DHT22;1463;51.070;16.998;2023-07-24T06:36:16;22.60;94.20
2907;DHT22;1463;51.070;16.998;2023-07-24T06:38:45;22.70;93.70
2907;DHT22;1463;51.070;16.998;2023-07-24T06:41:13;22.70;94.00
2907;DHT22;1463;51.070;16.998;2023-07-24T06:43:42;22.80;93.70
2907;DHT22;1463;51.070;16.998;2023-07-24T06:46:09;22.80;93.30
2907;DHT22;1463;51.070;16.998;2023-07-24T06:48:37;22.90;93.40
2907;DHT22;1463;51.070;16.998;2023-07-24T06:51:04;22.90;93.40
2907;DHT22;1463;51.070;16.998;2023-07-24T06:53:31;22.90;93.90
2907;DHT22;1463;51.070;16.998;2023-07-24T06:56:01;23.00;94.50
2907;DHT22;1463;51.070;16.998;2023-07-24T06:58:28;23.00;94.60
2907;DHT22;1463;51.070;16.998;2023-07-24T07:00:55;23.00;95.10
2907;DHT22;1463;51.070;16.998;2023-07-24T07:03:23;23.10;95.40
2907;DHT22;1463;51.070;16.998;2023-07-24T07:05:51;23.10;94.80
2907;DHT22;1463;51.070;16.998;2023-07-24T07:08:18;23.20;95.00
2907;DHT22;1463;51.070;16.998;2023-07-24T07:10:45;23.20;94.80
2907;DHT22;1463;51.070;16.998;2023-07-24T07:13:15;23.20;94.30
2907;DHT22;1463;51.070;16.998;2023-07-24T07:15:42;23.30;93.90
2907;DHT22;1463;51.070;16.998;2023-07-24T07:18:10;23.40;93.40
2907;DHT22;1463;51.070;16.998;2023-07-24T07:20:37;23.50;92.80
2907;DHT22;1463;51.070;16.998;2023-07-24T07:23:04;23.40;92.90
2907;DHT22;1463;51.070;16.998;2023-07-24T07:25:32;23.50;92.50
2907;DHT22;1463;51.070;16.998;2023-07-24T07:27:59;23.50;92.70
2907;DHT22;1463;51.070;16.998;2023-07-24T07:30:28;23.60;92.60
2907;DHT22;1463;51.070;16.998;2023-07-24T07:32:56;23.60;92.20
2907;DHT22;1463;51.070;16.998;2023-07-24T07:35:23;23.70;92.20
2907;DHT22;1463;51.070;16.998;2023-07-24T07:37:51;23.70;92.10
2907;DHT22;1463;51.070;16.998;2023-07-24T07:40:18;23.80;92.30
2907;DHT22;1463;51.070;16.998;2023-07-24T07:42:46;23.80;92.60
2907;DHT22;1463;51.070;16.998;2023-07-24T07:45:13;23.90;92.50
2907;DHT22;1463;51.070;16.998;2023-07-24T07:47:42;23.90;92.70
2907;DHT22;1463;51.070;16.998;2023-07-24T07:50:10;24.00;91.90
2907;DHT22;1463;51.070;16.998;2023-07-24T07:52:37;24.10;90.60
2907;DHT22;1463;51.070;16.998;2023-07-24T07:55:05;24.20;88.50
2907;DHT22;1463;51.070;16.998;2023-07-24T07:57:35;24.30;88.10
2907;DHT22;1463;51.070;16.998;2023-07-24T08:00:03;24.30;87.10
2907;DHT22;1463;51.070;16.998;2023-07-24T08:02:31;24.40;88.60
2907;DHT22;1463;51.070;16.998;2023-07-24T08:05:01;24.50;89.00
2907;DHT22;1463;51.070;16.998;2023-07-24T08:07:30;24.60;87.40
2907;DHT22;1463;51.070;16.998;2023-07-24T08:09:57;24.50;87.20
2907;DHT22;1463;51.070;16.998;2023-07-24T08:12:25;24.60;86.70
2907;DHT22;1463;51.070;16.998;2023-07-24T08:14:52;24.80;87.00
2907;DHT22;1463;51.070;16.998;2023-07-24T08:17:20;24.70;88.90
2907;DHT22;1463;51.070;16.998;2023-07-24T08:19:47;24.70;87.00
2907;DHT22;1463;51.070;16.998;2023-07-24T08:22:16;24.70;87.80
2907;DHT22;1463;51.070;16.998;2023-07-24T08:24:46;24.80;86.70
2907;DHT22;1463;51.070;16.998;2023-07-24T08:27:16;24.80;87.30
2907;DHT22;1463;51.070;16.998;2023-07-24T08:29:43;24.80;86.30
2907;DHT22;1463;51.070;16.998;2023-07-24T08:32:11;24.90;85.90
2907;DHT22;1463;51.070;16.998;2023-07-24T08:34:38;24.80;85.10
2907;DHT22;1463;51.070;16.998;2023-07-24T08:37:06;24.90;85.20
2907;DHT22;1463;51.070;16.998;2023-07-24T08:39:35;25.00;84.60
2907;DHT22;1463;51.070;16.998;2023-07-24T08:42:09;25.10;85.00
2907;DHT22;1463;51.070;16.998;2023-07-24T08:44:37;25.10;85.50
2907;DHT22;1463;51.070;16.998;2023-07-24T08:47:09;25.20;85.00
2907;DHT22;1463;51.070;16.998;2023-07-24T08:49:38;25.30;84.30
2907;DHT22;1463;51.070;16.998;2023-07-24T08:52:07;25.40;83.80
2907;DHT22;1463;51.070;16.998;2023-07-24T08:54:37;25.40;83.40
2907;DHT22;1463;51.070;16.998;2023-07-24T08:57:07;25.40;82.40
2907;DHT22;1463;51.070;16.998;2023-07-24T08:59:35;25.50;83.20
2907;DHT22;1463;51.070;16.998;2023-07-24T09:02:02;25.50;83.30
2907;DHT22;1463;51.070;16.998;2023-07-24T09:04:30;25.60;81.90
2907;DHT22;1463;51.070;16.998;2023-07-24T09:06:57;25.60;81.40
2907;DHT22;1463;51.070;16.998;2023-07-24T09:09:29;25.60;82.70
2907;DHT22;1463;51.070;16.998;2023-07-24T09:11:59;25.50;82.60
2907;DHT22;1463;51.070;16.998;2023-07-24T09:14:28;25.60;81.80
2907;DHT22;1463;51.070;16.998;2023-07-24T09:17:04;25.60;82.40
2907;DHT22;1463;51.070;16.998;2023-07-24T09:19:32;25.70;82.50
2907;DHT22;1463;51.070;16.998;2023-07-24T09:22:09;25.70;82.10
2907;DHT22;1463;51.070;16.998;2023-07-24T09:24:37;25.70;81.80
2907;DHT22;1463;51.070;16.998;2023-07-24T09:27:07;25.70;81.40
2907;DHT22;1463;51.070;16.998;2023-07-24T09:29:35;25.70;81.90
2907;DHT22;1463;51.070;16.998;2023-07-24T09:32:04;25.70;82.20
2907;DHT22;1463;51.070;16.998;2023-07-24T09:34:32;25.60;81.20
2907;DHT22;1463;51.070;16.998;2023-07-24T09:36:59;25.60;81.70
2907;DHT22;1463;51.070;16.998;2023-07-24T09:39:27;25.60;82.20
2907;DHT22;1463;51.070;16.998;2023-07-24T09:42:03;25.70;81.80
2907;DHT22;1463;51.070;16.998;2023-07-24T09:44:32;25.70;82.00
2907;DHT22;1463;51.070;16.998;2023-07-24T09:47:00;25.70;82.00
2907;DHT22;1463;51.070;16.998;2023-07-24T09:49:28;25.80;81.50
2907;DHT22;1463;51.070;16.998;2023-07-24T09:51:59;26.00;79.80
2907;DHT22;1463;51.070;16.998;2023-07-24T09:54:36;26.00;81.50
2907;DHT22;1463;51.070;16.998;2023-07-24T09:57:11;26.00;80.80
2907;DHT22;1463;51.070;16.998;2023-07-24T09:59:42;26.20;79.50
2907;DHT22;1463;51.070;16.998;2023-07-24T10:02:11;26.20;80.00
2907;DHT22;1463;51.070;16.998;2023-07-24T10:04:40;26.20;80.10
2907;DHT22;1463;51.070;16.998;2023-07-24T10:07:09;26.10;80.30
2907;DHT22;1463;51.070;16.998;2023-07-24T10:09:37;26.10;79.80
2907;DHT22;1463;51.070;16.998;2023-07-24T10:12:06;26.00;80.30
2907;DHT22;1463;51.070;16.998;2023-07-24T10:14:34;26.00;79.60
2907;DHT22;1463;51.070;16.998;2023-07-24T10:17:05;25.90;79.20
2907;DHT22;1463;51.070;16.998;2023-07-24T10:19:36;25.80;79.40
2907;DHT22;1463;51.070;16.998;2023-07-24T10:22:04;25.80;79.40
2907;DHT22;1463;51.070;16.998;2023-07-24T10:24:33;25.80;80.40
2907;DHT22;1463;51.070;16.998;2023-07-24T10:27:03;25.80;80.90
2907;DHT22;1463;51.070;16.998;2023-07-24T10:29:34;25.70;80.90
2907;DHT22;1463;51.070;16.998;2023-07-24T10:32:05;25.70;82.00
2907;DHT22;1463;51.070;16.998;2023-07-24T10:34:43;25.70;82.80
2907;DHT22;1463;51.070;16.998;2023-07-24T10:37:11;25.70;83.00
2907;DHT22;1463;51.070;16.998;2023-07-24T10:39:39;25.70;83.70
2907;DHT22;1463;51.070;16.998;2023-07-24T10:42:08;25.70;84.20
2907;DHT22;1463;51.070;16.998;2023-07-24T10:44:36;25.70;83.30
2907;DHT22;1463;51.070;16.998;2023-07-24T10:47:06;25.70;83.50
2907;DHT22;1463;51.070;16.998;2023-07-24T10:49:34;25.70;82.90
2907;DHT22;1463;51.070;16.998;2023-07-24T10:52:02;25.70;82.90
2907;DHT22;1463;51.070;16.998;2023-07-24T10:54:31;25.60;83.20
2907;DHT22;1463;51.070;16.998;2023-07-24T10:56:59;25.60;83.50
2907;DHT22;1463;51.070;16.998;2023-07-24T10:59:37;25.60;84.10
2907;DHT22;1463;51.070;16.998;2023-07-24T11:02:07;25.60;84.00
2907;DHT22;1463;51.070;16.998;2023-07-24T11:04:36;25.60;84.60
2907;DHT22;1463;51.070;16.998;2023-07-24T11:07:03;25.70;85.20
2907;DHT22;1463;51.070;16.998;2023-07-24T11:09:37;25.70;84.60
2907;DHT22;1463;51.070;16.998;2023-07-24T11:12:13;25.90;85.40
2907;DHT22;1463;51.070;16.998;2023-07-24T11:14:48;26.10;85.10
2907;DHT22;1463;51.070;16.998;2023-07-24T11:17:17;26.00;84.80
2907;DHT22;1463;51.070;16.998;2023-07-24T11:19:45;26.10;85.40
2907;DHT22;1463;51.070;16.998;2023-07-24T11:22:14;26.20;86.30
2907;DHT22;1463;51.070;16.998;2023-07-24T11:24:43;26.10;85.50
2907;DHT22;1463;51.070;16.998;2023-07-24T11:27:13;26.10;86.60
2907;DHT22;1463;51.070;16.998;2023-07-24T11:29:42;26.10;84.90
2907;DHT22;1463;51.070;16.998;2023-07-24T11:32:09;26.10;86.90
2907;DHT22;1463;51.070;16.998;2023-07-24T11:34:38;26.10;86.40
2907;DHT22;1463;51.070;16.998;2023-07-24T11:37:06;26.30;87.90
2907;DHT22;1463;51.070;16.998;2023-07-24T11:39:34;26.40;88.40
2907;DHT22;1463;51.070;16.998;2023-07-24T11:42:02;26.50;88.60
2907;DHT22;1463;51.070;16.998;2023-07-24T11:44:29;26.50;85.60
2907;DHT22;1463;51.070;16.998;2023-07-24T11:47:04;26.50;87.10
2907;DHT22;1463;51.070;16.998;2023-07-24T11:49:32;26.50;84.80
2907;DHT22;1463;51.070;16.998;2023-07-24T11:52:03;26.50;84.50
2907;DHT22;1463;51.070;16.998;2023-07-24T11:54:30;26.50;84.10
2907;DHT22;1463;51.070;16.998;2023-07-24T11:56:58;26.60;83.30
2907;DHT22;1463;51.070;16.998;2023-07-24T11:59:25;26.60;84.10
2907;DHT22;1463;51.070;16.998;2023-07-24T12:01:53;26.60;83.80
2907;DHT22;1463;51.070;16.998;2023-07-24T12:04:21;26.70;83.10
2907;DHT22;1463;51.070;16.998;2023-07-24T12:06:48;26.90;82.80
2907;DHT22;1463;51.070;16.998;2023-07-24T12:09:17;26.80;82.20
2907;DHT22;1463;51.070;16.998;2023-07-24T12:11:45;26.80;82.70
2907;DHT22;1463;51.070;16.998;2023-07-24T12:14:15;26.70;83.40
2907;DHT22;1463;51.070;16.998;2023-07-24T12:16:42;26.70;83.40
2907;DHT22;1463;51.070;16.998;2023-07-24T12:19:10;26.70;83.60
2907;DHT22;1463;51.070;16.998;2023-07-24T12:21:37;26.70;82.70
2907;DHT22;1463;51.070;16.998;2023-07-24T12:24:05;26.80;82.90
2907;DHT22;1463;51.070;16.998;2023-07-24T12:26:34;26.80;82.90
2907;DHT22;1463;51.070;16.998;2023-07-24T12:29:02;26.80;82.40
2907;DHT22;1463;51.070;16.998;2023-07-24T12:31:29;26.70;81.80
2907;DHT22;1463;51.070;16.998;2023-07-24T12:33:59;26.90;81.30
2907;DHT22;1463;51.070;16.998;2023-07-24T12:36:27;26.90;81.40
2907;DHT22;1463;51.070;16.998;2023-07-24T12:38:54;26.90;81.20
2907;DHT22;1463;51.070;16.998;2023-07-24T12:41:22;26.90;81.80
2907;DHT22;1463;51.070;16.998;2023-07-24T12:43:51;26.90;81.70
2907;DHT22;1463;51.070;16.998;2023-07-24T12:46:18;26.80;82.30
2907;DHT22;1463;51.070;16.998;2023-07-24T12:48:46;26.90;82.50
2907;DHT22;1463;51.070;16.998;2023-07-24T12:51:13;26.90;83.70
2907;DHT22;1463;51.070;16.998;2023-07-24T12:53:41;27.00;82.20
2907;DHT22;1463;51.070;16.998;2023-07-24T12:56:08;27.00;82.40
2907;DHT22;1463;51.070;16.998;2023-07-24T12:58:36;27.00;82.40
2907;DHT22;1463;51.070;16.998;2023-07-24T13:01:05;27.00;83.00
2907;DHT22;1463;51.070;16.998;2023-07-24T13:03:32;27.00;83.40
2907;DHT22;1463;51.070;16.998;2023-07-24T13:06:00;26.90;82.40
2907;DHT22;1463;51.070;16.998;2023-07-24T13:08:27;27.00;83.10
2907;DHT22;1463;51.070;16.998;2023-07-24T13:10:55;26.90;83.20
2907;DHT22;1463;51.070;16.998;2023-07-24T13:13:26;26.90;83.40
2907;DHT22;1463;51.070;16.998;2023-07-24T13:15:54;26.90;83.20
2907;DHT22;1463;51.070;16.998;2023-07-24T13:18:24;27.00;83.70
2907;DHT22;1463;51.070;16.998;2023-07-24T13:20:51;27.00;80.90
2907;DHT22;1463;51.070;16.998;2023-07-24T13:23:19;27.10;80.60
2907;DHT22;1463;51.070;16.998;2023-07-24T13:25:46;27.10;80.30
2907;DHT22;1463;51.070;16.998;2023-07-24T13:28:14;27.10;79.60
2907;DHT22;1463;51.070;16.998;2023-07-24T13:30:41;27.10;80.20
2907;DHT22;1463;51.070;16.998;2023-07-24T13:33:09;27.00;80.00
2907;DHT22;1463;51.070;16.998;2023-07-24T13:35:38;26.80;79.00
2907;DHT22;1463;51.070;16.998;2023-07-24T13:38:05;27.00;77.80
2907;DHT22;1463;51.070;16.998;2023-07-24T13:40:34;27.10;77.40
2907;DHT22;1463;51.070;16.998;2023-07-24T13:43:02;27.10;76.80
2907;DHT22;1463;51.070;16.998;2023-07-24T13:45:30;27.10;76.60
2907;DHT22;1463;51.070;16.998;2023-07-24T13:47:58;27.10;77.40
2907;DHT22;1463;51.070;16.998;2023-07-24T13:50:26;27.10;77.50
2907;DHT22;1463;51.070;16.998;2023-07-24T13:52:55;27.20;77.30
2907;DHT22;1463;51.070;16.998;2023-07-24T13:55:22;27.20;77.20
2907;DHT22;1463;51.070;16.998;2023-07-24T13:57:49;27.20;77.80
2907;DHT22;1463;51.070;16.998;2023-07-24T14:00:17;27.20;77.70
2907;DHT22;1463;51.070;16.998;2023-07-24T14:02:45;27.30;77.20
2907;DHT22;1463;51.070;16.998;2023-07-24T14:05:12;27.30;78.20
2907;DHT22;1463;51.070;16.998;2023-07-24T14:07:40;27.40;78.20
2907;DHT22;1463;51.070;16.998;2023-07-24T14:10:10;27.50;76.60
2907;DHT22;1463;51.070;16.998;2023-07-24T14:12:37;27.60;76.60
2907;DHT22;1463;51.070;16.998;2023-07-24T14:15:06;27.40;76.20
2907;DHT22;1463;51.070;16.998;2023-07-24T14:17:33;27.50;77.70
2907;DHT22;1463;51.070;16.998;2023-07-24T14:20:02;27.50;76.60
2907;DHT22;1463;51.070;16.998;2023-07-24T14:22:29;27.60;76.50
2907;DHT22;1463;51.070;16.998;2023-07-24T14:24:57;27.40;76.70
2907;DHT22;1463;51.070;16.998;2023-07-24T14:27:26;27.30;77.20
2907;DHT22;1463;51.070;16.998;2023-07-24T14:29:53;27.30;77.00
2907;DHT22;1463;51.070;16.998;2023-07-24T14:32:21;27.10;77.00
2907;DHT22;1463;51.070;16.998;2023-07-24T14:34:51;27.10;77.90
2907;DHT22;1463;51.070;16.998;2023-07-24T14:37:18;27.00;78.20
2907;DHT22;1463;51.070;16.998;2023-07-24T14:39:46;26.90;78.30
2907;DHT22;1463;51.070;16.998;2023-07-24T14:42:14;26.90;78.20
2907;DHT22;1463;51.070;16.998;2023-07-24T14:44:43;27.00;78.10
2907;DHT22;1463;51.070;16.998;2023-07-24T14:47:10;26.90;79.10
2907;DHT22;1463;51.070;16.998;2023-07-24T14:49:39;26.90;80.80
2907;DHT22;1463;51.070;16.998;2023-07-24T14:52:07;26.90;80.50
2907;DHT22;1463;51.070;16.998;2023-07-24T14:54:35;26.90;80.20
2907;DHT22;1463;51.070;16.998;2023-07-24T14:57:02;27.00;80.10
2907;DHT22;1463;51.070;16.998;2023-07-24T14:59:30;26.90;80.60
2907;DHT22;1463;51.070;16.998;2023-07-24T15:01:58;26.90;80.70
2907;DHT22;1463;51.070;16.998;2023-07-24T15:04:26;26.80;80.90
2907;DHT22;1463;51.070;16.998;2023-07-24T15:06:54;26.90;80.40
2907;DHT22;1463;51.070;16.998;2023-07-24T15:09:21;26.80;80.50
2907;DHT22;1463;51.070;16.998;2023-07-24T15:11:48;26.80;81.00
2907;DHT22;1463;51.070;16.998;2023-07-24T15:14:16;26.80;80.70
2907;DHT22;1463;51.070;16.998;2023-07-24T15:16:43;26.70;81.50
2907;DHT22;1463;51.070;16.998;2023-07-24T15:19:12;26.80;81.80
2907;DHT22;1463;51.070;16.998;2023-07-24T15:21:40;26.80;80.80
2907;DHT22;1463;51.070;16.998;2023-07-24T15:24:07;26.70;80.30
2907;DHT22;1463;51.070;16.998;2023-07-24T15:26:35;26.70;80.80
2907;DHT22;1463;51.070;16.998;2023-07-24T15:29:02;26.70;81.00
2907;DHT22;1463;51.070;16.998;2023-07-24T15:31:30;26.70;80.70
2907;DHT22;1463;51.070;16.998;2023-07-24T15:34:01;26.70;81.70
2907;DHT22;1463;51.070;16.998;2023-07-24T15:36:30;26.80;81.30
2907;DHT22;1463;51.070;16.998;2023-07-24T15:38:58;26.80;81.60
2907;DHT22;1463;51.070;16.998;2023-07-24T15:41:25;26.70;81.80
2907;DHT22;1463;51.070;16.998;2023-07-24T15:43:52;26.70;82.10
2907;DHT22;1463;51.070;16.998;2023-07-24T15:46:20;26.80;81.50
2907;DHT22;1463;51.070;16.998;2023-07-24T15:48:47;26.70;81.60
2907;DHT22;1463;51.070;16.998;2023-07-24T15:51:15;26.70;81.60